This is the latest recevied weather packets stored in our database for station/object KD7AWQ. If no packets are shown the sender has not sent any weather packets the latest 10 day(s).
| Time | Temp. | Humidity | Pressure | Rain* | Wind** | Luminosity | Snow |
|---|---|---|---|---|---|---|---|
| 1777941713 | 17.22° C | 37% | 1183.1 hPa | 0 mm | - | 158 W/m² | - |
| 1777940803 | 17.78° C | 34% | 1183.1 hPa | 0 mm | - | 112 W/m² | - |
| 1777940502 | 18.33° C | 34% | 1182.9 hPa | 0 mm | - | 125 W/m² | - |
| 1777938684 | 19.44° C | 28% | 1183 hPa | 0 mm | - | 174 W/m² | - |
| 1777933833 | 22.22° C | 22% | 1182.8 hPa | 0 mm | - | 375 W/m² | - |
| 1777928679 | 23.89° C | 19% | 1182.4 hPa | 0 mm | - | 545 W/m² | - |
| 1777928376 | 23.33° C | 20% | 1182.4 hPa | 0 mm | - | 691 W/m² | - |
| 1777923224 | 24.44° C | 17% | 1182.8 hPa | 0 mm | - | 791 W/m² | - |
| 1777922923 | 24.44° C | 16% | 1183 hPa | 0 mm | - | 766 W/m² | - |
| 1777922621 | 25° C | 15% | 1182.8 hPa | 0 mm | - | 821 W/m² | - |
| 1777922319 | 23.89° C | 18% | 1182.8 hPa | 0 mm | - | 1007 W/m² | - |
| 1777922017 | 23.89° C | 17% | 1183 hPa | 0 mm | - | 908 W/m² | - |
| 1777921408 | 23.89° C | 16% | 1183 hPa | 0 mm | - | 864 W/m² | - |
| 1777921105 | 23.89° C | 17% | 1183.2 hPa | 0 mm | - | 665 W/m² | - |
| 1777920802 | 24.44° C | 17% | 1183.2 hPa | 0 mm | - | 535 W/m² | - |
| 1777920498 | 24.44° C | 16% | 1183.3 hPa | 0 mm | - | 786 W/m² | - |
| 1777919889 | 23.89° C | 17% | 1183.2 hPa | 0 mm | - | 751 W/m² | - |
| 1777919587 | 23.89° C | 17% | 1183.6 hPa | 0 mm | - | 952 W/m² | - |
| 1777919285 | 23.89° C | 17% | 1183.3 hPa | 0 mm | - | 889 W/m² | - |
| 1777918982 | 23.33° C | 18% | 1183.7 hPa | 0 mm | - | 875 W/m² | - |
| 1777918679 | 23.89° C | 17% | 1183.6 hPa | 0 mm | - | 986 W/m² | - |
| 1777918376 | 23.89° C | 17% | 1183.7 hPa | 0 mm | - | 797 W/m² | - |
| 1777918075 | 23.33° C | 17% | 1183.7 hPa | 0 mm | - | 878 W/m² | - |
| 1777917773 | 23.33° C | 17% | 1183.6 hPa | 0 mm | - | 1059 W/m² | - |
| 1777917471 | 23.33° C | 17% | 1183.5 hPa | 0 mm | - | 755 W/m² | - |
* Rain latest hour (hover to see other rain measurements)
** Current wind speed in m/s (hover to see current wind gust speed)